createdAt,value
2023-03-21T00:00:41.924Z,3.30
2023-03-21T00:03:09.513Z,2.00
2023-03-21T00:05:41.349Z,2.43
2023-03-21T00:08:09.679Z,2.90
2023-03-21T00:10:43.839Z,2.10
2023-03-21T00:13:15.212Z,2.77
2023-03-21T00:16:08.093Z,2.57
2023-03-21T00:18:46.579Z,2.70
2023-03-21T00:24:06.801Z,2.80
2023-03-21T00:26:34.160Z,4.10
2023-03-21T00:29:01.489Z,4.63
2023-03-21T00:31:28.905Z,2.90
2023-03-21T00:33:56.271Z,3.00
2023-03-21T00:36:26.164Z,2.50
2023-03-21T00:38:53.729Z,3.50
2023-03-21T00:41:35.133Z,2.97
2023-03-21T00:44:08.241Z,5.33
2023-03-21T00:46:45.596Z,2.73
2023-03-21T00:49:16.661Z,5.20
2023-03-21T00:51:44.537Z,3.87
2023-03-21T00:54:13.215Z,3.20
2023-03-21T00:56:41.774Z,4.50
2023-03-21T00:59:10.573Z,3.10
2023-03-21T01:01:38.011Z,3.23
2023-03-21T01:04:13.286Z,4.30
2023-03-21T01:06:41.760Z,3.50
2023-03-21T01:09:12.878Z,3.37
2023-03-21T01:11:40.300Z,4.73
2023-03-21T01:14:21.260Z,3.23
2023-03-21T01:16:50.460Z,4.53
2023-03-21T01:19:25.474Z,4.50
2023-03-21T01:21:55.930Z,3.87
2023-03-21T01:24:23.703Z,4.30
2023-03-21T01:26:51.109Z,3.37
2023-03-21T01:29:18.564Z,5.97
2023-03-21T01:31:46.324Z,3.60
2023-03-21T01:34:13.801Z,5.67
2023-03-21T01:36:41.788Z,3.57
2023-03-21T01:39:15.302Z,4.63
2023-03-21T01:41:44.710Z,4.60
2023-03-21T01:44:53.756Z,4.13
2023-03-21T01:47:21.862Z,3.10
2023-03-21T01:50:04.102Z,3.27
2023-03-21T01:52:41.839Z,3.17
2023-03-21T01:55:16.120Z,4.83
2023-03-21T01:58:19.567Z,3.50
2023-03-21T02:01:13.229Z,3.77
2023-03-21T02:03:50.999Z,3.80
2023-03-21T02:06:40.112Z,4.27
2023-03-21T02:09:25.026Z,4.37
2023-03-21T02:11:54.886Z,4.87
2023-03-21T02:14:29.388Z,4.30
2023-03-21T02:17:03.539Z,4.53
2023-03-21T02:19:39.330Z,5.30
2023-03-21T02:22:12.168Z,5.30
2023-03-21T02:25:04.288Z,4.27
2023-03-21T02:27:38.323Z,5.63
2023-03-21T02:30:26.450Z,5.20
2023-03-21T02:32:56.666Z,5.50
2023-03-21T02:35:29.857Z,4.97
2023-03-21T02:38:05.264Z,5.37
2023-03-21T02:40:36.272Z,6.63
2023-03-21T02:43:22.912Z,4.17
2023-03-21T02:45:54.175Z,6.30
2023-03-21T02:48:44.362Z,3.90
2023-03-21T02:51:18.095Z,3.57
2023-03-21T02:53:51.732Z,4.80
2023-03-21T02:56:24.628Z,4.83
2023-03-21T02:58:55.607Z,3.83
2023-03-21T03:01:25.999Z,4.03
2023-03-21T03:03:53.594Z,3.43
2023-03-21T03:06:29.961Z,3.97
2023-03-21T03:09:02.881Z,4.47
2023-03-21T03:11:33.524Z,3.80
2023-03-21T03:14:25.465Z,4.53
2023-03-21T03:17:03.827Z,3.27
2023-03-21T03:19:41.647Z,4.73
2023-03-21T03:22:18.459Z,3.57
2023-03-21T03:25:18.676Z,7.63
2023-03-21T03:27:52.151Z,5.03
2023-03-21T03:30:20.007Z,3.87
2023-03-21T03:32:50.793Z,5.27
2023-03-21T03:35:20.836Z,4.97
2023-03-21T03:37:49.796Z,5.57
2023-03-21T03:40:21.596Z,5.83
2023-03-21T03:43:01.214Z,4.63
2023-03-21T03:45:35.921Z,5.70
2023-03-21T03:48:06.833Z,4.93
2023-03-21T03:50:40.998Z,5.37
2023-03-21T03:53:18.310Z,5.17
2023-03-21T03:55:47.186Z,6.47
2023-03-21T03:58:23.842Z,4.43
2023-03-21T04:00:55.004Z,5.50
2023-03-21T04:03:22.675Z,4.60
2023-03-21T04:05:50.844Z,4.80
2023-03-21T04:08:18.797Z,5.40
2023-03-21T04:10:52.107Z,6.50
2023-03-21T04:13:20.218Z,6.13
2023-03-21T04:16:07.048Z,4.97
2023-03-21T04:18:34.636Z,6.03
2023-03-21T04:21:02.281Z,5.17
2023-03-21T04:23:31.092Z,6.70
2023-03-21T04:25:58.575Z,4.87
2023-03-21T04:28:36.106Z,6.57
2023-03-21T04:31:26.426Z,8.10
2023-03-21T04:34:06.400Z,4.50
2023-03-21T04:36:38.882Z,4.50
2023-03-21T04:39:12.519Z,5.83
2023-03-21T04:41:41.059Z,3.80
2023-03-21T04:44:08.904Z,7.40
2023-03-21T04:46:37.356Z,5.10
2023-03-21T04:49:07.002Z,4.70
2023-03-21T04:51:35.266Z,4.77
2023-03-21T04:54:02.725Z,6.33
2023-03-21T04:56:32.803Z,6.73
2023-03-21T04:59:01.427Z,4.90
2023-03-21T05:01:32.216Z,4.53
2023-03-21T05:04:00.449Z,5.87
2023-03-21T05:06:28.268Z,5.70
2023-03-21T05:08:59.978Z,7.10
2023-03-21T05:11:31.081Z,4.77
2023-03-21T05:13:59.409Z,5.63
2023-03-21T05:16:30.738Z,5.53
2023-03-21T05:19:03.778Z,4.60
2023-03-21T05:21:43.529Z,4.10
2023-03-21T05:24:20.549Z,4.90
2023-03-21T05:27:01.553Z,6.37
2023-03-21T05:29:31.712Z,7.43
2023-03-21T05:32:03.198Z,4.53
2023-03-21T05:34:30.943Z,6.67
2023-03-21T05:36:59.547Z,4.20
2023-03-21T05:39:36.428Z,7.97
2023-03-21T05:42:10.057Z,6.13
2023-03-21T05:44:40.333Z,5.40
2023-03-21T05:47:09.744Z,5.67
2023-03-21T05:49:44.180Z,5.33
2023-03-21T05:52:12.973Z,7.87
2023-03-21T05:54:40.703Z,5.37
2023-03-21T05:57:08.613Z,5.70
2023-03-21T05:59:59.122Z,5.67
2023-03-21T06:02:28.558Z,5.77
2023-03-21T06:05:00.796Z,7.23
2023-03-21T06:07:28.521Z,7.30
2023-03-21T06:10:02.108Z,5.10
2023-03-21T06:12:32.984Z,5.97
2023-03-21T06:15:19.893Z,7.17
2023-03-21T06:17:54.931Z,6.03
2023-03-21T06:20:22.486Z,7.03
2023-03-21T06:22:53.589Z,5.77
2023-03-21T06:25:21.432Z,5.77
2023-03-21T06:27:48.884Z,4.97
2023-03-21T06:30:16.825Z,6.00
2023-03-21T06:33:01.862Z,6.80
2023-03-21T06:35:29.413Z,6.07
2023-03-21T06:37:58.918Z,8.27
2023-03-21T06:40:28.512Z,6.63
2023-03-21T06:42:56.486Z,6.80
2023-03-21T06:45:25.650Z,6.23
2023-03-21T06:47:53.984Z,8.40
2023-03-21T06:50:31.835Z,7.10
2023-03-21T06:52:59.471Z,7.53
2023-03-21T06:55:29.140Z,7.20
2023-03-21T06:58:00.902Z,7.37
2023-03-21T07:00:28.746Z,5.70
2023-03-21T07:02:56.348Z,7.30
2023-03-21T07:05:26.097Z,5.10
2023-03-21T07:07:53.693Z,5.93
2023-03-21T07:10:22.239Z,6.57
2023-03-21T07:12:59.502Z,4.57
2023-03-21T07:15:54.200Z,8.17
2023-03-21T07:18:21.747Z,5.90
2023-03-21T07:20:53.230Z,9.40
2023-03-21T07:23:21.693Z,6.97
2023-03-21T07:25:50.716Z,5.13
2023-03-21T07:28:18.953Z,5.63
2023-03-21T07:30:46.937Z,6.87
2023-03-21T07:33:16.102Z,7.13
2023-03-21T07:35:43.661Z,7.67
2023-03-21T07:38:11.350Z,5.10
2023-03-21T07:40:41.076Z,5.03
2023-03-21T07:43:08.555Z,7.40
2023-03-21T07:45:36.244Z,9.73
2023-03-21T07:48:08.203Z,5.03
2023-03-21T07:50:36.081Z,4.57
2023-03-21T07:53:03.551Z,5.87
2023-03-21T07:55:41.150Z,6.40
2023-03-21T07:58:17.484Z,7.43
2023-03-21T08:00:45.337Z,5.13
2023-03-21T08:03:13.317Z,5.63
2023-03-21T08:05:41.942Z,5.37
2023-03-21T08:08:10.620Z,5.50
2023-03-21T08:10:38.346Z,4.73
2023-03-21T08:13:05.988Z,6.50
2023-03-21T08:15:33.356Z,6.70
2023-03-21T08:18:03.213Z,8.00
2023-03-21T08:20:30.907Z,5.10
2023-03-21T08:22:58.296Z,7.80
2023-03-21T08:25:25.971Z,5.50
2023-03-21T08:27:53.370Z,7.40
2023-03-21T08:30:22.972Z,6.63
2023-03-21T08:32:51.097Z,4.53
2023-03-21T08:35:20.462Z,4.27
2023-03-21T08:37:47.945Z,4.87
2023-03-21T08:40:19.143Z,4.13
2023-03-21T08:42:47.254Z,5.50
2023-03-21T08:45:16.001Z,5.03
2023-03-21T08:47:45.849Z,4.77
2023-03-21T08:50:18.961Z,4.70
2023-03-21T08:52:46.695Z,4.70
2023-03-21T08:55:15.040Z,4.80
2023-03-21T08:57:43.000Z,4.93
2023-03-21T09:00:21.593Z,5.17
2023-03-21T09:02:51.482Z,5.03
2023-03-21T09:05:19.698Z,6.83
2023-03-21T09:07:48.574Z,6.60
2023-03-21T09:10:22.135Z,5.47
2023-03-21T09:12:51.183Z,5.00
2023-03-21T09:15:20.513Z,6.13
2023-03-21T09:17:56.462Z,5.00
2023-03-21T09:20:31.266Z,4.43
2023-03-21T09:22:59.956Z,5.53
2023-03-21T09:25:31.284Z,5.67
2023-03-21T09:27:59.712Z,6.07
2023-03-21T09:30:28.642Z,4.57
2023-03-21T09:32:56.441Z,3.97
2023-03-21T09:35:24.833Z,3.87
2023-03-21T09:37:59.027Z,5.77
2023-03-21T09:40:27.462Z,5.23
2023-03-21T09:43:13.966Z,5.80
2023-03-21T09:45:44.157Z,3.03
2023-03-21T09:48:21.195Z,4.13
2023-03-21T09:50:48.856Z,5.57
2023-03-21T09:53:28.337Z,3.67
2023-03-21T09:55:56.843Z,4.30
2023-03-21T09:58:30.176Z,5.07
2023-03-21T10:01:04.624Z,5.47
2023-03-21T10:03:40.080Z,3.87
2023-03-21T10:06:15.783Z,4.30
2023-03-21T10:08:45.079Z,4.23
2023-03-21T10:11:18.235Z,4.17
2023-03-21T10:13:50.398Z,4.23
2023-03-21T10:16:20.731Z,3.20
2023-03-21T10:18:49.091Z,3.30
2023-03-21T10:21:47.801Z,4.07
2023-03-21T10:24:18.130Z,4.93
2023-03-21T10:26:46.088Z,4.97
2023-03-21T10:29:14.991Z,6.00
2023-03-21T10:31:43.230Z,4.73
2023-03-21T10:34:16.987Z,7.33
2023-03-21T10:36:45.117Z,4.27
2023-03-21T10:39:17.894Z,4.20
2023-03-21T10:41:45.358Z,5.23
2023-03-21T10:44:17.939Z,9.53
2023-03-21T10:46:59.343Z,7.07
2023-03-21T10:49:27.792Z,5.80
2023-03-21T10:51:57.104Z,4.70
2023-03-21T10:54:28.809Z,5.00
2023-03-21T10:56:58.390Z,4.97
2023-03-21T10:59:27.255Z,8.57
2023-03-21T11:01:56.602Z,5.43
2023-03-21T11:04:30.334Z,5.57
2023-03-21T11:07:09.192Z,6.13
2023-03-21T11:09:56.225Z,6.23
2023-03-21T11:12:50.284Z,4.13
2023-03-21T11:15:30.239Z,5.70
2023-03-21T11:17:58.987Z,6.03
2023-03-21T11:20:31.844Z,5.73
2023-03-21T11:23:01.051Z,4.30
2023-03-21T11:25:33.598Z,4.33
2023-03-21T11:28:06.593Z,5.67
2023-03-21T11:30:34.091Z,4.97
2023-03-21T11:33:21.176Z,4.40
2023-03-21T11:36:05.073Z,5.37
2023-03-21T11:38:34.418Z,5.30
2023-03-21T11:41:05.047Z,6.13
2023-03-21T11:43:35.408Z,5.10
2023-03-21T11:46:06.100Z,4.13
2023-03-21T11:48:36.876Z,5.47
2023-03-21T11:51:06.339Z,6.50
2023-03-21T11:53:40.548Z,5.13
2023-03-21T11:56:17.254Z,4.93
2023-03-21T11:59:07.889Z,4.13
2023-03-21T12:01:50.951Z,5.27
2023-03-21T12:04:37.547Z,3.20
2023-03-21T12:07:24.667Z,6.63
2023-03-21T12:10:10.922Z,4.07
2023-03-21T12:12:52.246Z,4.43
2023-03-21T12:15:31.756Z,3.20
2023-03-21T12:18:04.201Z,2.83
2023-03-21T12:20:50.897Z,4.43
2023-03-21T12:23:27.610Z,4.73
2023-03-21T12:25:58.116Z,2.60
2023-03-21T12:28:33.423Z,3.33
2023-03-21T12:31:12.710Z,2.60
2023-03-21T12:33:40.211Z,3.10
2023-03-21T12:36:20.000Z,3.60
2023-03-21T12:38:59.049Z,2.70
2023-03-21T12:41:32.431Z,3.30
2023-03-21T12:44:15.937Z,2.40
2023-03-21T12:46:49.876Z,4.13
2023-03-21T12:49:25.889Z,5.03
2023-03-21T12:51:58.962Z,3.67
2023-03-21T12:54:45.352Z,5.13
2023-03-21T12:57:27.642Z,3.03
2023-03-21T13:00:09.880Z,3.67
2023-03-21T13:02:43.539Z,3.60
2023-03-21T13:05:19.149Z,5.67
2023-03-21T13:07:49.680Z,5.30
2023-03-21T13:10:23.658Z,6.33
2023-03-21T13:12:57.088Z,2.80
2023-03-21T13:15:44.853Z,2.80
2023-03-21T13:18:31.894Z,4.70
2023-03-21T13:21:17.687Z,3.27
2023-03-21T13:24:03.241Z,4.97
2023-03-21T13:26:37.843Z,3.90
2023-03-21T13:29:25.015Z,4.10
2023-03-21T13:31:55.947Z,3.10
2023-03-21T13:34:27.085Z,4.33
2023-03-21T13:37:03.518Z,3.37
2023-03-21T13:39:34.229Z,3.87
2023-03-21T13:42:05.903Z,3.40
2023-03-21T13:44:34.111Z,4.00
2023-03-21T13:47:05.416Z,3.97
2023-03-21T13:49:37.168Z,3.63
2023-03-21T13:52:04.566Z,5.23
2023-03-21T13:54:46.042Z,3.80
2023-03-21T13:57:22.820Z,4.30
2023-03-21T13:59:50.242Z,5.03
2023-03-21T14:02:31.481Z,7.20
2023-03-21T14:05:06.266Z,4.20
2023-03-21T14:07:36.907Z,5.40
2023-03-21T14:10:15.279Z,4.87
2023-03-21T14:12:43.202Z,4.80
2023-03-21T14:15:29.945Z,4.00
2023-03-21T14:17:59.430Z,3.93
2023-03-21T14:20:28.716Z,3.60
2023-03-21T14:22:56.273Z,5.53
2023-03-21T14:25:29.218Z,7.77
2023-03-21T14:28:01.210Z,4.30
2023-03-21T14:30:33.979Z,3.03
2023-03-21T14:33:07.037Z,4.13
2023-03-21T14:35:34.802Z,3.97
2023-03-21T14:38:04.593Z,3.13
2023-03-21T14:40:32.133Z,4.07
2023-03-21T14:43:04.727Z,3.77
2023-03-21T14:45:35.923Z,4.10
2023-03-21T14:48:08.185Z,3.20
2023-03-21T14:50:43.630Z,3.97
2023-03-21T14:53:15.562Z,5.77
2023-03-21T14:55:48.326Z,5.90
2023-03-21T14:58:19.178Z,3.07
2023-03-21T15:00:49.477Z,5.67
2023-03-21T15:03:17.890Z,4.80
2023-03-21T15:05:47.879Z,3.83
2023-03-21T15:08:19.643Z,3.03
2023-03-21T15:11:08.608Z,3.77
2023-03-21T15:13:38.003Z,3.73
2023-03-21T15:16:05.999Z,2.93
2023-03-21T15:18:37.825Z,2.90
2023-03-21T15:21:08.873Z,3.70
2023-03-21T15:23:39.317Z,3.13
2023-03-21T15:26:07.072Z,2.97
2023-03-21T15:28:37.016Z,3.97
2023-03-21T15:31:05.401Z,2.43
2023-03-21T15:33:36.159Z,2.90
2023-03-21T15:36:10.513Z,2.97
2023-03-21T15:38:42.529Z,5.27
2023-03-21T15:41:25.255Z,1.70
2023-03-21T15:44:01.742Z,2.10
2023-03-21T15:46:43.462Z,1.90
2023-03-21T15:49:18.915Z,2.83
2023-03-21T15:51:52.285Z,1.73
2023-03-21T15:54:24.703Z,3.93
2023-03-21T15:56:56.220Z,1.60
2023-03-21T15:59:25.679Z,3.03
2023-03-21T16:01:53.344Z,1.80
2023-03-21T16:04:21.105Z,3.70
2023-03-21T16:06:53.681Z,3.53
2023-03-21T16:09:24.322Z,1.83
2023-03-21T16:11:53.253Z,3.03
2023-03-21T16:14:21.697Z,1.97
2023-03-21T16:16:49.937Z,1.77
2023-03-21T16:19:17.989Z,2.00
2023-03-21T16:21:46.052Z,1.67
2023-03-21T16:24:16.947Z,2.20
2023-03-21T16:26:52.121Z,2.50
2023-03-21T16:29:19.967Z,4.60
2023-03-21T16:31:48.595Z,2.97
2023-03-21T16:34:16.296Z,1.27
2023-03-21T16:36:44.007Z,1.83
2023-03-21T16:39:17.458Z,2.70
2023-03-21T16:41:45.014Z,2.33
2023-03-21T16:44:12.446Z,1.57
2023-03-21T16:46:39.881Z,1.40
2023-03-21T16:49:17.680Z,2.07
2023-03-21T16:51:45.139Z,1.50
2023-03-21T16:54:12.541Z,4.47
2023-03-21T16:56:45.412Z,1.87
2023-03-21T16:59:13.908Z,1.47
2023-03-21T17:01:41.924Z,1.60
2023-03-21T17:04:09.666Z,1.40
2023-03-21T17:06:40.780Z,2.20
2023-03-21T17:09:08.962Z,1.03
2023-03-21T17:11:37.544Z,1.33
2023-03-21T17:14:04.955Z,1.20
2023-03-21T17:16:32.476Z,1.30
2023-03-21T17:19:00.884Z,1.60
2023-03-21T17:21:29.485Z,1.43
2023-03-21T17:23:57.322Z,3.40
2023-03-21T17:26:29.267Z,1.17
2023-03-21T17:28:57.537Z,1.17
2023-03-21T17:31:26.205Z,1.00
2023-03-21T17:33:53.797Z,2.23
2023-03-21T17:36:30.438Z,3.40
2023-03-21T17:38:57.945Z,1.10
2023-03-21T17:41:26.068Z,1.43
2023-03-21T17:43:53.648Z,0.93
2023-03-21T17:46:29.142Z,1.20
2023-03-21T17:48:56.910Z,1.23
2023-03-21T17:51:29.988Z,1.93
2023-03-21T17:54:03.829Z,2.30
2023-03-21T17:56:34.473Z,1.27
2023-03-21T17:59:03.345Z,1.97
2023-03-21T18:01:31.342Z,1.60
2023-03-21T18:04:02.173Z,1.03
2023-03-21T18:06:29.769Z,0.90
2023-03-21T18:08:59.344Z,2.10
2023-03-21T18:11:28.343Z,1.53
2023-03-21T18:14:09.897Z,0.93
2023-03-21T18:16:43.000Z,2.80
2023-03-21T18:19:12.750Z,1.90
2023-03-21T18:21:41.185Z,3.00
2023-03-21T18:24:11.592Z,1.00
2023-03-21T18:26:39.949Z,2.33
2023-03-21T18:32:06.324Z,1.03
2023-03-21T18:34:34.480Z,1.13
2023-03-21T18:37:03.938Z,1.60
2023-03-21T18:39:33.135Z,1.23
2023-03-21T18:42:04.875Z,1.27
2023-03-21T18:44:39.249Z,1.30
2023-03-21T18:47:08.574Z,1.00
2023-03-21T18:52:27.290Z,1.20
2023-03-21T18:54:54.891Z,1.43
2023-03-21T18:57:38.887Z,5.13
2023-03-21T19:00:12.488Z,1.93
2023-03-21T19:02:45.490Z,1.63
2023-03-21T19:05:15.629Z,3.57
2023-03-21T19:07:43.094Z,2.50
2023-03-21T19:10:19.640Z,1.27
2023-03-21T19:12:48.614Z,2.33
2023-03-21T19:15:18.013Z,3.00
2023-03-21T19:20:48.479Z,1.50
2023-03-21T19:23:17.277Z,2.57
2023-03-21T19:25:45.126Z,2.47
2023-03-21T19:28:12.976Z,4.67
2023-03-21T19:30:49.087Z,2.03
2023-03-21T19:33:18.565Z,1.50
2023-03-21T19:35:46.525Z,4.23
2023-03-21T19:38:14.064Z,3.70
2023-03-21T19:40:42.073Z,1.30
2023-03-21T19:43:31.617Z,3.47
2023-03-21T19:46:00.893Z,2.10
2023-03-21T19:48:28.529Z,1.20
2023-03-21T19:53:43.702Z,1.47
2023-03-21T19:56:21.615Z,1.60
2023-03-21T19:58:58.240Z,2.53
2023-03-21T20:01:28.506Z,2.50
2023-03-21T20:03:56.069Z,3.80
2023-03-21T20:06:24.033Z,2.73
2023-03-21T20:11:42.316Z,1.07
2023-03-21T20:14:09.957Z,2.27
2023-03-21T20:16:43.210Z,4.70
2023-03-21T20:19:12.577Z,2.23
2023-03-21T20:21:48.534Z,1.13
2023-03-21T20:24:19.847Z,1.20
2023-03-21T20:26:47.406Z,4.57
2023-03-21T20:32:03.160Z,1.70
2023-03-21T20:34:30.749Z,2.93
2023-03-21T20:36:58.613Z,1.57
2023-03-21T20:39:29.462Z,3.10
2023-03-21T20:41:59.393Z,2.47
2023-03-21T20:44:57.233Z,1.53
2023-03-21T20:47:17.203Z,1.50
2023-03-21T20:49:44.704Z,2.83
2023-03-21T20:52:54.465Z,2.43
2023-03-21T20:55:03.185Z,1.53
2023-03-21T20:57:30.544Z,4.03
2023-03-21T20:59:58.912Z,1.77
2023-03-21T21:02:26.579Z,3.73
2023-03-21T21:05:24.122Z,2.73
2023-03-21T21:07:43.295Z,1.40
2023-03-21T21:10:12.091Z,1.50
2023-03-21T21:12:40.154Z,1.77
2023-03-21T21:15:08.359Z,2.07
2023-03-21T21:20:23.929Z,2.03
2023-03-21T21:22:59.497Z,3.17
2023-03-21T21:25:28.964Z,2.13
2023-03-21T21:27:56.410Z,2.07
2023-03-21T21:30:24.054Z,2.07
2023-03-21T21:32:51.372Z,1.93
2023-03-21T21:35:22.906Z,3.63
2023-03-21T21:37:51.523Z,1.93
2023-03-21T21:40:22.889Z,1.67
2023-03-21T21:42:50.835Z,1.47
2023-03-21T21:45:19.099Z,1.73
2023-03-21T21:47:46.597Z,1.47
2023-03-21T21:50:14.435Z,1.20
2023-03-21T21:52:46.216Z,2.93
2023-03-21T21:55:13.624Z,2.77
2023-03-21T21:57:41.077Z,1.63
2023-03-21T22:00:13.715Z,1.87
2023-03-21T22:02:42.054Z,1.40
2023-03-21T22:05:10.563Z,2.20
2023-03-21T22:07:38.114Z,2.17
2023-03-21T22:10:06.771Z,2.40
2023-03-21T22:12:34.285Z,1.13
2023-03-21T22:15:01.660Z,1.40
2023-03-21T22:17:30.849Z,1.30
2023-03-21T22:20:05.785Z,2.93
2023-03-21T22:22:34.467Z,2.63
2023-03-21T22:25:06.376Z,3.30
2023-03-21T22:27:34.089Z,2.67
2023-03-21T22:30:04.679Z,1.47
2023-03-21T22:32:33.027Z,1.00
2023-03-21T22:35:04.104Z,1.20
2023-03-21T22:37:35.795Z,1.90
2023-03-21T22:40:10.418Z,2.70
2023-03-21T22:42:39.656Z,1.40
2023-03-21T22:45:08.393Z,1.23
2023-03-21T22:47:36.157Z,1.57
2023-03-21T22:50:05.258Z,1.67
2023-03-21T22:52:32.717Z,1.27
2023-03-21T22:55:00.298Z,1.33
2023-03-21T22:57:30.453Z,0.90
2023-03-21T22:59:57.822Z,1.83
2023-03-21T23:02:28.427Z,1.40
2023-03-21T23:04:58.880Z,1.23
2023-03-21T23:07:28.495Z,2.20
2023-03-21T23:09:59.650Z,1.83
2023-03-21T23:12:27.192Z,1.53
2023-03-21T23:14:54.480Z,4.47
2023-03-21T23:17:24.895Z,3.30
2023-03-21T23:19:52.244Z,1.17
2023-03-21T23:22:19.641Z,1.80
2023-03-21T23:24:47.787Z,1.20
2023-03-21T23:27:15.256Z,3.37
2023-03-21T23:29:43.861Z,1.30
2023-03-21T23:32:11.213Z,1.63
2023-03-21T23:34:38.646Z,4.67
2023-03-21T23:37:06.870Z,3.20
2023-03-21T23:39:35.798Z,1.00
2023-03-21T23:42:03.199Z,2.63
2023-03-21T23:44:30.755Z,1.13
2023-03-21T23:46:58.100Z,1.23
2023-03-21T23:49:26.384Z,1.10
2023-03-21T23:51:53.922Z,1.90
2023-03-21T23:54:21.315Z,1.27
2023-03-21T23:56:48.800Z,1.93
2023-03-21T23:59:16.307Z,4.17
